createdAt,value
2023-03-16T15:39:29.041Z,0
2023-03-16T15:40:37.317Z,0
2023-03-16T15:41:47.927Z,0
2023-03-16T15:42:54.206Z,2
2023-03-16T15:44:02.554Z,2
2023-03-16T15:45:10.903Z,2
2023-03-16T15:46:19.470Z,4
2023-03-16T15:47:27.706Z,4
2023-03-16T15:48:36.020Z,4
2023-03-16T15:49:48.187Z,3.8
2023-03-16T15:50:52.877Z,3.8
2023-03-16T15:52:01.188Z,3.8
2023-03-16T15:53:13.215Z,2.7
2023-03-16T15:54:18.013Z,2.7
2023-03-16T15:55:26.342Z,2.7
2023-03-16T15:56:38.755Z,2.2
2023-03-16T15:57:43.162Z,2.2
2023-03-16T15:58:51.479Z,2.2
2023-03-16T16:00:00.025Z,2.7
2023-03-16T16:01:08.361Z,2.7
2023-03-16T16:02:16.659Z,2.7
2023-03-16T16:03:25.185Z,2.5
2023-03-16T16:04:33.553Z,2.5
2023-03-16T16:05:41.809Z,2.5
2023-03-16T16:06:50.327Z,1.5
2023-03-16T16:07:58.682Z,1.5
2023-03-16T16:09:07.021Z,1.5
2023-03-16T16:10:15.568Z,2.7
2023-03-16T16:11:23.973Z,2.7
2023-03-16T16:12:32.282Z,2.7
2023-03-16T16:13:44.452Z,2
2023-03-16T16:14:49.141Z,2
2023-03-16T16:15:57.499Z,2
2023-03-16T16:17:06.056Z,2.3
2023-03-16T16:18:21.166Z,2.3
2023-03-16T16:19:22.756Z,2.3
2023-03-16T16:20:31.298Z,3.5
2023-03-16T16:21:39.619Z,3.5
2023-03-16T16:22:47.955Z,3.5
2023-03-16T16:23:56.473Z,2.5
2023-03-16T16:25:04.805Z,2.5
2023-03-16T16:26:13.128Z,2.5
2023-03-16T16:27:21.684Z,3.6
2023-03-16T16:28:30.028Z,3.6
2023-03-16T16:29:38.456Z,3.6
2023-03-16T16:30:47.360Z,2
2023-03-16T16:31:55.845Z,2
2023-03-16T16:33:04.054Z,2
2023-03-16T16:34:12.648Z,2.1
2023-03-16T16:35:20.945Z,2.1
2023-03-16T16:36:29.240Z,2.1
2023-03-16T16:37:37.777Z,3
2023-03-16T16:38:46.121Z,3
2023-03-16T16:39:54.479Z,3
2023-03-16T16:41:02.975Z,2.9
2023-03-16T16:42:11.295Z,2.9
2023-03-16T16:43:19.648Z,2.9
2023-03-16T16:44:28.171Z,3.4
2023-03-16T16:45:36.492Z,3.4
2023-03-16T16:46:44.808Z,3.4
2023-03-16T16:47:53.334Z,3.4
2023-03-16T16:49:01.788Z,3.4
2023-03-16T16:50:10.069Z,3.4
2023-03-16T16:51:18.577Z,2.8
2023-03-16T16:52:26.893Z,2.8
2023-03-16T16:53:35.211Z,2.8
2023-03-16T16:54:43.749Z,4.2
2023-03-16T16:55:52.087Z,4.2
2023-03-16T16:57:00.505Z,4.2
2023-03-16T16:58:15.323Z,5.6
2023-03-16T16:59:17.334Z,5.6
2023-03-16T17:00:25.662Z,5.6
2023-03-16T17:01:34.208Z,4.7
2023-03-16T17:02:42.509Z,4.7
2023-03-16T17:03:50.829Z,4.7
2023-03-16T17:04:59.398Z,3.4
2023-03-16T17:06:07.702Z,3.4
2023-03-16T17:07:16.073Z,3.4
2023-03-16T17:08:24.626Z,4.1
2023-03-16T17:09:32.971Z,4.1
2023-03-16T17:10:41.321Z,4.1
2023-03-16T17:11:49.877Z,3.7
2023-03-16T17:12:58.216Z,3.7
2023-03-16T17:14:06.531Z,3.7
2023-03-16T17:15:15.578Z,6
2023-03-16T17:16:23.894Z,6
2023-03-16T17:17:32.180Z,6
2023-03-16T17:18:40.708Z,27.1
2023-03-16T17:19:49.056Z,27.1
2023-03-16T17:20:57.387Z,27.1
2023-03-16T17:22:05.920Z,4.4
2023-03-16T17:23:14.234Z,4.4
2023-03-16T17:24:22.564Z,4.4
2023-03-16T17:25:31.452Z,31.5
2023-03-16T17:26:39.444Z,31.5
2023-03-16T17:27:47.796Z,31.5
2023-03-16T17:28:56.333Z,3.7
2023-03-16T17:30:04.755Z,3.7
2023-03-16T17:31:13.092Z,3.7
2023-03-16T17:32:21.571Z,2.4
2023-03-16T17:33:29.942Z,2.4
2023-03-16T17:34:38.258Z,2.4
2023-03-16T17:35:46.854Z,3.6
2023-03-16T17:36:55.142Z,3.6
2023-03-16T17:38:03.495Z,3.6
2023-03-16T17:39:12.019Z,11
2023-03-16T17:40:20.356Z,11
2023-03-16T17:41:29.730Z,11
2023-03-16T17:42:37.225Z,2.4
2023-03-16T17:43:45.548Z,2.4
2023-03-16T17:44:53.902Z,2.4
2023-03-16T17:46:02.444Z,2.7
2023-03-16T17:47:10.773Z,2.7
2023-03-16T17:48:19.041Z,2.7
2023-03-16T17:49:27.589Z,3.2
2023-03-16T17:50:35.932Z,3.2
2023-03-16T17:51:44.250Z,3.2
2023-03-16T17:52:52.791Z,3.2
2023-03-16T17:54:01.155Z,3.2
2023-03-16T17:55:11.088Z,3.2
2023-03-16T17:56:20.074Z,3.1
2023-03-16T17:57:28.441Z,3.1
2023-03-16T17:58:36.766Z,3.1
2023-03-16T17:59:45.338Z,2.3
2023-03-16T18:00:53.655Z,2.3
2023-03-16T18:02:02.007Z,2.3
2023-03-16T18:03:10.565Z,3.8
2023-03-16T18:04:20.393Z,3.8
2023-03-16T18:05:28.700Z,3.8
2023-03-16T18:06:37.485Z,16.799999
2023-03-16T18:07:45.824Z,16.799999
2023-03-16T18:08:54.144Z,16.799999
2023-03-16T18:10:02.691Z,5.3
2023-03-16T18:11:11.048Z,5.3
2023-03-16T18:12:19.339Z,5.3
2023-03-16T18:13:27.875Z,4.1
2023-03-16T18:14:36.286Z,4.1
2023-03-16T18:15:44.611Z,4.1
2023-03-16T18:16:53.094Z,2.1
2023-03-16T18:18:01.399Z,2.1
2023-03-16T18:19:09.749Z,2.1
2023-03-16T18:20:18.252Z,7.3
2023-03-16T18:21:26.562Z,7.3
2023-03-16T18:22:34.876Z,7.3
2023-03-16T18:23:43.424Z,9.7
2023-03-16T18:24:51.732Z,9.7
2023-03-16T18:26:00.053Z,9.7
2023-03-16T18:27:09.369Z,2.8
2023-03-16T18:28:16.888Z,2.8
2023-03-16T18:29:25.228Z,2.8
2023-03-16T18:30:33.752Z,6.3
2023-03-16T18:31:42.148Z,6.3
2023-03-16T18:32:50.430Z,6.3
2023-03-16T18:33:58.923Z,3.6
2023-03-16T18:35:07.303Z,3.6
2023-03-16T18:36:15.661Z,3.6
2023-03-16T18:37:24.117Z,4.3
2023-03-16T18:38:32.456Z,4.3
2023-03-16T18:39:40.759Z,4.3
2023-03-16T18:40:49.267Z,2.4
2023-03-16T18:41:57.582Z,2.4
2023-03-16T18:43:05.905Z,2.4
2023-03-16T18:44:14.431Z,6.1
2023-03-16T18:45:22.761Z,6.1
2023-03-16T18:46:31.115Z,6.1
2023-03-16T18:47:39.597Z,3.6
2023-03-16T18:48:47.910Z,3.6
2023-03-16T18:49:56.289Z,3.6
2023-03-16T18:51:04.844Z,4.2
2023-03-16T18:52:13.093Z,4.2
2023-03-16T18:53:21.405Z,4.2
2023-03-16T18:54:29.927Z,2.9
2023-03-16T18:55:38.242Z,2.9
2023-03-16T18:56:46.554Z,2.9
2023-03-16T18:57:55.065Z,4.1
2023-03-16T18:59:03.373Z,4.1
2023-03-16T19:00:11.688Z,4.1
2023-03-16T19:01:20.199Z,2.3
2023-03-16T19:02:28.588Z,2.3
2023-03-16T19:03:36.847Z,2.3
2023-03-16T19:04:45.422Z,2.9
2023-03-16T19:05:53.740Z,2.9
2023-03-16T19:07:02.128Z,2.9
2023-03-16T19:08:10.582Z,9.5
2023-03-16T19:09:18.930Z,9.5
2023-03-16T19:10:27.281Z,9.5
2023-03-16T19:11:35.794Z,5.3
2023-03-16T19:12:44.112Z,5.3
2023-03-16T19:13:54.547Z,5.3
2023-03-16T19:15:00.971Z,5.1
2023-03-16T19:16:09.305Z,5.1
2023-03-16T19:17:17.590Z,5.1
2023-03-16T19:18:26.186Z,2.1
2023-03-16T19:19:34.443Z,2.1
2023-03-16T19:20:42.727Z,2.1
2023-03-16T19:21:51.260Z,3.2
2023-03-16T19:22:59.579Z,3.2
2023-03-16T19:24:07.858Z,3.2
2023-03-16T19:25:16.405Z,3.8
2023-03-16T19:26:24.714Z,3.8
2023-03-16T19:27:33.019Z,3.8
2023-03-16T19:28:41.531Z,2.9
2023-03-16T19:29:52.017Z,2.9
2023-03-16T19:30:58.133Z,2.9
2023-03-16T19:32:06.727Z,4.6
2023-03-16T19:33:14.986Z,4.6
2023-03-16T19:34:23.313Z,4.6
2023-03-16T19:35:48.703Z,3.4
2023-03-16T19:36:40.238Z,3.4
2023-03-16T19:37:48.549Z,3.4
2023-03-16T19:38:57.232Z,2.8
2023-03-16T19:40:05.429Z,2.8
2023-03-16T19:41:13.769Z,2.8
2023-03-16T19:42:22.312Z,3.1
2023-03-16T19:43:30.694Z,3.1
2023-03-16T19:44:39.020Z,3.1
2023-03-16T19:45:47.618Z,7.6
2023-03-16T19:46:55.876Z,7.6
2023-03-16T19:48:04.192Z,7.6
2023-03-16T19:49:12.733Z,5.3
2023-03-16T19:50:21.105Z,5.3
2023-03-16T19:51:29.420Z,5.3
2023-03-16T19:52:37.966Z,7.5
2023-03-16T19:53:46.299Z,7.5
2023-03-16T19:54:54.680Z,7.5
2023-03-16T19:56:03.202Z,4
2023-03-16T19:57:11.533Z,4
2023-03-16T19:58:19.849Z,4
2023-03-16T19:59:28.407Z,4.2
2023-03-16T20:00:36.720Z,4.2
2023-03-16T20:01:45.049Z,4.2
2023-03-16T20:02:53.563Z,3.2
2023-03-16T20:04:01.978Z,3.2
2023-03-16T20:05:10.234Z,3.2
2023-03-16T20:06:18.760Z,3.3
2023-03-16T20:07:27.074Z,3.3
2023-03-16T20:08:35.401Z,3.3
2023-03-16T20:09:43.912Z,5
2023-03-16T20:10:52.242Z,5
2023-03-16T20:12:00.538Z,5
2023-03-16T20:13:09.061Z,3
2023-03-16T20:14:17.560Z,3
2023-03-16T20:15:25.719Z,3
2023-03-16T20:16:34.286Z,4.8
2023-03-16T20:17:42.545Z,4.8
2023-03-16T20:18:50.865Z,4.8
2023-03-16T20:19:59.412Z,4.6
2023-03-16T20:21:07.731Z,4.6
2023-03-16T20:22:16.047Z,4.6
2023-03-16T20:23:24.610Z,3.1
2023-03-16T20:24:32.915Z,3.1
2023-03-16T20:25:41.226Z,3.1
2023-03-16T20:26:49.822Z,5.1
2023-03-16T20:27:58.114Z,5.1
2023-03-16T20:29:06.433Z,5.1
2023-03-16T20:30:14.959Z,5.3
2023-03-16T20:31:23.317Z,5.3
2023-03-16T20:32:31.706Z,5.3
2023-03-16T20:33:40.188Z,4.6
2023-03-16T20:34:48.525Z,4.6
2023-03-16T20:35:56.877Z,4.6
2023-03-16T20:37:05.402Z,7.1
2023-03-16T20:38:13.729Z,7.1
2023-03-16T20:39:22.031Z,7.1
2023-03-16T20:40:30.605Z,3.4
2023-03-16T20:41:38.919Z,3.4
2023-03-16T20:42:47.240Z,3.4
2023-03-16T20:43:55.738Z,3.3
2023-03-16T20:45:04.070Z,3.3
2023-03-16T20:46:12.432Z,3.3
2023-03-16T20:47:20.952Z,2.4
2023-03-16T20:48:29.279Z,2.4
2023-03-16T20:49:37.624Z,2.4
2023-03-16T20:50:46.155Z,4.2
2023-03-16T20:51:54.473Z,4.2
2023-03-16T20:53:02.823Z,4.2
2023-03-16T20:54:11.354Z,3.9
2023-03-16T20:55:19.678Z,3.9
2023-03-16T20:56:28.005Z,3.9
2023-03-16T20:57:36.491Z,3.9
2023-03-16T20:58:44.831Z,3.9
2023-03-16T20:59:53.126Z,3.9
2023-03-16T21:01:01.647Z,3.5
2023-03-16T21:02:09.966Z,3.5
2023-03-16T21:03:18.310Z,3.5
2023-03-16T21:04:26.850Z,5.2
2023-03-16T21:05:35.147Z,5.2
2023-03-16T21:06:43.462Z,5.2
2023-03-16T21:07:51.956Z,3.4
2023-03-16T21:09:00.286Z,3.4
2023-03-16T21:10:08.634Z,3.4
2023-03-16T21:11:17.158Z,2.9
2023-03-16T21:12:25.487Z,2.9
2023-03-16T21:13:33.836Z,2.9
2023-03-16T21:14:42.384Z,2.9
2023-03-16T21:15:50.804Z,2.9
2023-03-16T21:16:58.998Z,2.9
2023-03-16T21:18:07.535Z,3.9
2023-03-16T21:19:15.865Z,3.9
2023-03-16T21:20:24.216Z,3.9
2023-03-16T21:21:32.758Z,3.1
2023-03-16T21:22:41.081Z,3.1
2023-03-16T21:23:49.435Z,3.1
2023-03-16T21:24:57.974Z,4.6
2023-03-16T21:26:06.309Z,4.6
2023-03-16T21:27:14.648Z,4.6
2023-03-16T21:28:23.200Z,3
2023-03-16T21:29:31.518Z,3
2023-03-16T21:30:39.862Z,3
2023-03-16T21:31:48.379Z,3.6
2023-03-16T21:32:56.756Z,3.6
2023-03-16T21:34:05.016Z,3.6
2023-03-16T21:35:13.565Z,3.1
2023-03-16T21:36:21.907Z,3.1
2023-03-16T21:37:30.207Z,3.1
2023-03-16T21:38:38.751Z,2.8
2023-03-16T21:39:47.077Z,2.8
2023-03-16T21:40:55.413Z,2.8
2023-03-16T21:42:03.943Z,3.5
2023-03-16T21:43:12.276Z,3.5
2023-03-16T21:44:20.589Z,3.5
2023-03-16T21:45:29.394Z,3.3
2023-03-16T21:46:37.543Z,3.3
2023-03-16T21:47:45.763Z,3.3
2023-03-16T21:48:54.320Z,2.9
2023-03-16T21:50:02.643Z,2.9
2023-03-16T21:51:10.964Z,2.9
2023-03-16T21:52:19.496Z,3.9
2023-03-16T21:53:27.790Z,3.9
2023-03-16T21:54:36.096Z,3.9
2023-03-16T21:55:44.610Z,3.4
2023-03-16T21:56:52.928Z,3.4
2023-03-16T21:58:01.250Z,3.4
2023-03-16T21:59:09.797Z,2.9
2023-03-16T22:00:18.127Z,2.9
2023-03-16T22:01:26.473Z,2.9
2023-03-16T22:02:35.095Z,3.9
2023-03-16T22:03:50.755Z,3.9
2023-03-16T22:04:51.603Z,3.9
2023-03-16T22:06:00.138Z,3.4
2023-03-16T22:07:08.457Z,3.4
2023-03-16T22:08:16.782Z,3.4
2023-03-16T22:09:25.330Z,3.2
2023-03-16T22:10:33.637Z,3.2
2023-03-16T22:11:41.959Z,3.2
2023-03-16T22:12:50.489Z,4.6
2023-03-16T22:13:58.801Z,4.6
2023-03-16T22:15:07.160Z,4.6
2023-03-16T22:16:15.728Z,3.7
2023-03-16T22:17:24.021Z,3.7
2023-03-16T22:18:32.364Z,3.7
2023-03-16T22:19:40.864Z,3.3
2023-03-16T22:20:49.191Z,3.3
2023-03-16T22:21:57.527Z,3.3
2023-03-16T22:23:06.063Z,2.5
2023-03-16T22:24:14.393Z,2.5
2023-03-16T22:25:22.744Z,2.5
2023-03-16T22:26:31.289Z,3.1
2023-03-16T22:27:39.578Z,3.1
2023-03-16T22:28:47.893Z,3.1
2023-03-16T22:29:56.422Z,4.1
2023-03-16T22:31:04.723Z,4.1
2023-03-16T22:32:13.061Z,4.1
2023-03-16T22:33:21.584Z,4
2023-03-16T22:34:29.923Z,4
2023-03-16T22:35:38.245Z,4
2023-03-16T22:36:46.730Z,3
2023-03-16T22:37:55.054Z,3
2023-03-16T22:39:03.376Z,3
2023-03-16T22:40:11.914Z,3
2023-03-16T22:41:20.216Z,3
2023-03-16T22:42:28.544Z,3
2023-03-16T22:43:37.055Z,4
2023-03-16T22:44:45.372Z,4
2023-03-16T22:45:53.761Z,4
2023-03-16T22:47:02.236Z,3.1
2023-03-16T22:48:10.563Z,3.1
2023-03-16T22:49:18.866Z,3.1
2023-03-16T22:50:27.443Z,3.5
2023-03-16T22:51:35.733Z,3.5
2023-03-16T22:52:44.006Z,3.5
2023-03-16T22:53:52.516Z,2.9
2023-03-16T22:55:00.868Z,2.9
2023-03-16T22:56:09.186Z,2.9
2023-03-16T22:57:17.696Z,3.2
2023-03-16T22:58:26.007Z,3.2
2023-03-16T22:59:34.353Z,3.2
2023-03-16T23:00:42.902Z,3.6
2023-03-16T23:01:51.165Z,3.6
2023-03-16T23:02:59.496Z,3.6
2023-03-16T23:04:07.986Z,2.6
2023-03-16T23:05:16.296Z,2.6
2023-03-16T23:06:24.688Z,2.6
2023-03-16T23:07:33.136Z,2.3
2023-03-16T23:08:41.432Z,2.3
2023-03-16T23:09:49.773Z,2.3
2023-03-16T23:10:58.302Z,3.3
2023-03-16T23:12:06.622Z,3.3
2023-03-16T23:13:14.958Z,3.3
2023-03-16T23:14:23.490Z,3.5
2023-03-16T23:15:32.302Z,3.5
2023-03-16T23:16:40.161Z,3.5
2023-03-16T23:17:48.685Z,3.4
2023-03-16T23:18:57.005Z,3.4
2023-03-16T23:20:05.347Z,3.4
2023-03-16T23:21:13.875Z,2.7
2023-03-16T23:22:22.244Z,2.7
2023-03-16T23:23:30.530Z,2.7
2023-03-16T23:24:39.050Z,3.3
2023-03-16T23:25:47.377Z,3.3
2023-03-16T23:26:55.707Z,3.3
2023-03-16T23:28:04.243Z,3.3
2023-03-16T23:29:12.563Z,3.3
2023-03-16T23:30:20.865Z,3.3
2023-03-16T23:31:29.394Z,3.4
2023-03-16T23:32:37.753Z,3.4
2023-03-16T23:33:46.033Z,3.4
2023-03-16T23:34:54.562Z,3.9
2023-03-16T23:36:02.904Z,3.9
2023-03-16T23:37:11.231Z,3.9
2023-03-16T23:38:19.786Z,3.2
2023-03-16T23:39:28.586Z,3.2
2023-03-16T23:40:36.911Z,3.2
2023-03-16T23:41:45.456Z,2.9
2023-03-16T23:42:53.786Z,2.9
2023-03-16T23:44:02.099Z,2.9
2023-03-16T23:45:10.653Z,4.2
2023-03-16T23:46:18.989Z,4.2
2023-03-16T23:47:27.294Z,4.2
2023-03-16T23:48:35.850Z,3.6
2023-03-16T23:49:44.169Z,3.6
2023-03-16T23:50:52.518Z,3.6
2023-03-16T23:52:01.058Z,3
2023-03-16T23:53:09.407Z,3
2023-03-16T23:54:17.750Z,3
2023-03-16T23:55:26.265Z,3.5
2023-03-16T23:56:34.595Z,3.5
2023-03-16T23:57:42.917Z,3.5
2023-03-16T23:58:51.475Z,3.8
2023-03-16T23:59:59.769Z,3.8
